Severance, Colorado
Current Conditions -  °F | °C
As of 7:15 PM on Saturday 22 Nov 2014 (Local Time) from KFNL Reporting Station
Clear Clear  
Wind Chill: 40°   Ceiling: Unl
Heat Index: 43°   Visibility: 10mi
Dew Point: 21°   Wind: 5mph
Humidity: 42%   Direction: 360°N
Pressure: 29.59"   Gusts: NA
Location:  40.52°N, 104.85°W
Report Text: KFNL 230215Z AUTO 36004KT 10SM CLR 06/M06 A2959 RMK AO1
Loading
Personal Weather Stations






























Interactive Weather Map New forecast layout! Learn more

10-Day Weather Forecast

Advertisements
Track Severe Weather on mobile